Latest Weather Observations for Scottsdale

IDT60801

Issued at 9:01 pm EST Wednesday 29 July 2015 (issued every 30 minutes, with the page automatically refreshed every 10 minutes)

About weather observations | Map of weather stations | Latest weather observations for TAS | Other Formats
Station Details ID: 091219 Name: SCOTTSDALE (WEST MINSTONE ROAD) Lat: -41.17 Lon: 147.49 Height: 197.5 m
Data from the previous 72 hours. | See also: Recent months at Scottsdale
Date/Time
EST
Temp
°C
App
Temp
°C
Dew
Point
Rel
Hum
%
Delta-T
°C
Wind Press
QNH
hPa
Press
MSL
hPa
Rain
since 9 am
mm
Dir
 
Spd
km/h
Gust
km/h
Spd
kts
Gust
kts
29/09:00pm 8.6 5.6 7.5 93 0.5 WNW 13 17 7 9 1024.5 1025.0 2.2
29/08:30pm 8.7 5.7 7.7 93 0.5 WNW 13 24 7 13 1024.5 - 2.2
29/08:00pm 8.6 5.7 8.0 96 0.3 NW 13 19 7 10 1024.4 - 2.2
29/07:30pm 8.5 6.0 8.1 97 0.2 NW 11 15 6 8 1024.6 - 2.2
29/07:00pm 8.5 6.4 8.1 97 0.2 WNW 9 11 5 6 1024.6 - 2.0
29/06:30pm 8.5 6.7 7.9 96 0.3 W 7 19 4 10 1024.4 - 1.4
29/06:00pm 8.5 6.6 7.7 95 0.4 WNW 7 11 4 6 1024.6 1025.1 1.0
29/05:30pm 8.5 5.5 7.7 95 0.4 WNW 13 20 7 11 1024.5 - 1.0
29/05:00pm 8.6 5.2 7.5 93 0.5 WNW 15 20 8 11 1024.7 - 1.0
29/04:30pm 8.6 5.6 7.5 93 0.5 WNW 13 24 7 13 1024.9 - 1.0
29/04:00pm 8.9 4.7 7.6 91 0.6 WNW 19 35 10 19 1025.2 - 1.0
29/03:30pm 9.1 5.1 8.1 93 0.5 WNW 19 24 10 13 1025.2 - 0.6
29/03:00pm 9.5 6.1 7.6 88 0.9 NW 15 24 8 13 1025.3 1025.8 0.4
29/02:30pm 9.5 6.1 7.6 88 0.9 WNW 15 24 8 13 1025.6 - 0.4
29/02:00pm 9.2 5.5 8.0 92 0.6 WNW 17 28 9 15 1025.9 - 0.4
29/01:30pm 9.9 5.7 7.4 84 1.2 WNW 19 26 10 14 1026.1 - 0.2
29/01:00pm 10.1 7.2 8.3 88 0.9 WNW 13 24 7 13 1026.6 - 0.2
29/12:30pm 9.2 7.2 8.6 96 0.3 WNW 9 15 5 8 1027.4 - 0.2
29/12:00pm 8.9 4.9 6.8 87 1.0 W 17 28 9 15 1027.9 1028.5 0.0
29/11:30am 9.6 5.9 6.1 79 1.6 W 15 24 8 13 1028.2 - 0.0
29/11:00am 9.1 5.4 6.3 83 1.3 W 15 22 8 12 1028.9 - 0.0
29/10:30am 9.3 5.6 6.5 83 1.3 WNW 15 20 8 11 1029.1 - 0.0
29/10:00am 8.7 6.2 6.5 86 1.0 WNW 9 15 5 8 1029.3 - 0.0
29/09:30am 7.8 5.3 6.5 91 0.6 WNW 9 15 5 8 1029.5 - 0.0
29/09:00am 6.8 4.2 6.1 95 0.3 W 9 15 5 8 1029.5 1030.0 0.2
29/08:30am 6.3 3.2 5.6 95 0.3 W 11 15 6 8 1029.6 - 0.2
29/08:00am 5.6 2.5 5.4 99 0.1 W 11 13 6 7 1029.6 - 0.2
29/07:30am 3.8 0.9 2.6 92 0.5 WNW 7 11 4 6 1029.3 - 0.2
29/07:00am 2.7 0.6 1.7 93 0.4 SW 2 6 1 3 1029.3 - 0.2
29/06:30am 3.1 0.5 3.1 100 0.0 S 6 9 3 5 1029.1 - 0.2
29/06:00am 3.0 -0.2 3.0 100 0.0 SSE 9 11 5 6 1029.1 1029.6 0.2
29/05:30am 2.8 0.5 2.8 100 0.0 SSW 4 7 2 4 1028.9 - 0.2
29/05:00am 2.2 -0.7 1.7 96 0.2 ENE 6 7 3 4 1028.5 - 0.2
29/04:30am 2.1 -0.9 2.1 100 0.0 ENE 7 7 4 4 1028.7 - 0.2
29/04:00am 2.6 -0.2 1.8 94 0.3 NE 6 7 3 4 1028.5 - 0.2
29/03:30am 2.5 -0.8 2.5 100 0.0 E 9 11 5 6 1028.4 - 0.0
29/03:00am 3.3 0.7 3.3 100 0.0 SSE 6 9 3 5 1028.5 1029.1 0.0
29/02:30am 3.2 0.4 3.2 100 0.0 ESE 7 9 4 5 1028.7 - 0.0
29/02:00am 3.9 0.8 3.4 97 0.2 SE 9 11 5 6 1028.7 - 0.0
29/01:30am 3.7 2.3 3.7 100 0.0 CALM 0 0 0 0 1028.7 - 0.0
29/01:00am 4.1 1.9 3.6 97 0.2 SE 4 9 2 5 1028.8 - 0.0
29/12:30am 4.0 1.3 3.5 97 0.2 ESE 7 11 4 6 1029.0 - 0.0
29/12:00am 5.3 2.8 4.8 97 0.2 SSW 7 9 4 5 1029.1 1029.6 0.0
 
Date/Time
EST
Temp
°C
App
Temp
°C
Dew
Point
Rel
Hum
%
Delta-T
°C
Wind Press
QNH
hPa
Press
MSL
hPa
Rain
since 9 am
mm
Dir
 
Spd
km/h
Gust
km/h
Spd
kts
Gust
kts
28/11:30pm 6.9 3.5 6.0 94 0.4 WNW 13 15 7 8 1028.9 - 0.0
28/11:00pm 7.4 4.8 6.3 93 0.5 W 9 17 5 9 1029.1 - 0.0
28/10:30pm 7.1 4.6 6.4 95 0.3 WNW 9 13 5 7 1028.8 - 0.0
28/10:00pm 7.3 5.2 6.6 95 0.3 W 7 11 4 6 1028.7 - 0.0
28/09:30pm 7.4 5.5 6.7 95 0.3 WSW 6 11 3 6 1028.5 - 0.0
28/09:00pm 6.1 4.1 6.1 100 0.0 W 6 7 3 4 1028.4 1029.0 0.0
28/08:30pm 7.3 5.3 6.4 94 0.4 WNW 6 9 3 5 1028.3 - 0.0
28/08:00pm 7.9 5.9 7.3 96 0.3 W 7 11 4 6 1028.2 - 0.0
28/07:30pm 8.4 6.5 7.6 95 0.4 NW 7 11 4 6 1028.1 - 0.0
28/07:00pm 9.6 7.4 7.9 89 0.8 NW 9 13 5 7 1028.0 - 0.0
28/06:30pm 10.0 7.9 8.1 88 0.9 N 9 15 5 8 1027.7 - 0.0
28/06:00pm 10.0 7.5 8.1 88 0.9 NNW 11 17 6 9 1027.5 1028.1 0.0
28/05:30pm 10.1 6.7 7.8 86 1.1 NNW 15 19 8 10 1027.2 - 0.0
28/05:00pm 10.9 8.4 8.0 82 1.4 NW 11 17 6 9 1027.1 - 0.0
28/04:30pm 11.2 8.6 7.9 80 1.6 WNW 11 17 6 9 1026.8 - 0.0
28/04:00pm 11.7 8.1 6.9 72 2.3 WNW 15 22 8 12 1026.6 - 0.0
28/03:30pm 12.1 8.5 6.9 70 2.5 WNW 15 22 8 12 1026.4 - 0.0
28/03:00pm 12.7 9.1 6.9 68 2.8 W 15 22 8 12 1026.2 1026.8 0.0
28/02:30pm 12.7 8.7 6.7 67 2.9 W 17 24 9 13 1026.1 - 0.0
28/02:00pm 13.0 9.2 5.8 61 3.4 W 15 22 8 12 1026.1 - 0.0
28/01:30pm 13.0 9.2 5.8 61 3.4 WNW 15 24 8 13 1026.2 - 0.0
28/01:00pm 12.5 7.7 5.4 62 3.3 W 20 30 11 16 1026.3 - 0.0
28/12:30pm 12.0 7.4 5.6 65 3.0 WNW 19 28 10 15 1026.6 - 0.0
28/12:00pm 11.7 7.4 5.2 64 3.0 WNW 17 24 9 13 1026.9 1027.5 0.0
28/11:30am 11.2 6.8 4.6 64 3.0 WNW 17 24 9 13 1027.3 - 0.0
28/11:00am 10.9 7.2 4.7 65 2.8 WNW 13 17 7 9 1027.3 - 0.0
28/10:30am 10.1 6.8 4.8 69 2.4 NW 11 15 6 8 1027.3 - 0.0
28/10:00am 9.1 6.2 4.6 73 2.0 WNW 9 13 5 7 1026.9 - 0.0
28/09:30am 8.8 6.9 4.8 76 1.8 WNW 4 7 2 4 1026.6 - 0.0
28/09:00am 7.1 5.5 4.6 84 1.1 WSW 2 7 1 4 1026.6 1027.2 0.0
28/08:30am 5.8 3.0 3.4 84 1.0 SSW 7 9 4 5 1026.2 - 0.0
28/08:00am 5.4 2.9 3.5 87 0.8 SW 6 7 3 4 1025.8 - 0.0
28/07:30am 4.7 2.8 3.0 89 0.7 SSE 2 9 1 5 1025.4 - 0.0
28/07:00am 3.9 1.1 2.1 88 0.7 SSE 6 9 3 5 1025.0 - 0.0
28/06:30am 6.3 3.3 4.0 85 1.0 W 9 15 5 8 1024.7 - 0.0
28/06:00am 6.7 3.2 3.7 81 1.3 WNW 11 15 6 8 1024.4 1024.9 0.0
28/05:30am 5.9 3.6 2.8 80 1.3 WSW 4 7 2 4 1024.1 - 0.0
28/05:00am 6.5 3.7 2.9 78 1.5 NW 7 15 4 8 1023.9 - 0.0
28/04:30am 6.4 2.4 2.8 78 1.5 NW 13 17 7 9 1023.7 - 0.0
28/04:00am 6.4 2.3 2.5 76 1.6 W 13 26 7 14 1023.5 - 0.0
28/03:30am 4.2 1.2 2.2 87 0.8 W 7 13 4 7 1023.4 - 0.0
28/03:00am 4.9 2.0 2.7 86 0.9 WNW 7 11 4 6 1023.4 1023.9 0.0
28/02:30am 5.8 2.2 2.7 80 1.3 WSW 11 17 6 9 1023.2 - 0.0
28/02:00am 6.1 3.2 2.7 79 1.4 W 7 11 4 6 1023.0 - 0.0
28/01:30am 6.5 2.1 2.9 78 1.5 W 15 20 8 11 1022.7 - 0.0
28/01:00am 4.7 0.7 2.7 87 0.8 WNW 13 17 7 9 1022.4 - 0.0
28/12:30am 4.7 1.1 2.7 87 0.8 NW 11 13 6 7 1022.1 - 0.0
28/12:00am 4.6 1.7 2.4 86 0.9 NW 7 11 4 6 1021.9 1022.5 0.0
 
Date/Time
EST
Temp
°C
App
Temp
°C
Dew
Point
Rel
Hum
%
Delta-T
°C
Wind Press
QNH
hPa
Press
MSL
hPa
Rain
since 9 am
mm
Dir
 
Spd
km/h
Gust
km/h
Spd
kts
Gust
kts
27/11:30pm 5.1 2.1 2.1 81 1.2 WNW 7 11 4 6 1021.9 - 0.0
27/11:00pm 3.1 0.1 0.7 84 0.9 S 6 7 3 4 1022.0 - 0.0
27/10:30pm 5.3 1.9 2.1 80 1.3 W 9 13 5 7 1022.0 - 0.0
27/10:00pm 5.5 2.1 1.8 77 1.5 W 9 11 5 6 1021.9 - 0.0
27/09:30pm 6.1 3.1 1.9 74 1.7 NW 7 9 4 5 1021.8 - 0.0
27/09:00pm 6.1 2.7 1.9 74 1.7 NW 9 13 5 7 1021.5 1022.0 0.0
27/08:30pm 6.8 3.4 1.6 69 2.1 NNW 9 13 5 7 1021.4 - 0.0
27/08:00pm 6.6 3.6 1.7 71 2.0 NW 7 9 4 5 1021.1 - 0.0
27/07:30pm 7.1 3.3 1.7 68 2.2 W 11 17 6 9 1021.1 - 0.0
27/07:00pm 7.6 3.0 1.8 67 2.4 W 15 20 8 11 1020.6 - 0.0
27/06:30pm 7.8 3.6 1.7 65 2.5 W 13 19 7 10 1020.1 - 0.0
27/06:00pm 8.4 3.4 1.4 61 2.9 W 17 26 9 14 1019.7 1020.2 0.0
27/05:30pm 8.8 4.3 2.2 63 2.8 WNW 15 20 8 11 1019.4 - 0.0
27/05:00pm 9.1 5.1 2.8 64 2.7 W 13 19 7 10 1018.9 - 0.0
27/04:30pm 10.1 5.8 3.0 61 3.1 W 15 24 8 13 1018.4 - 0.0
27/04:00pm 10.3 6.5 3.8 64 2.9 SW 13 20 7 11 1018.3 - 0.0
27/03:30pm 10.2 5.9 3.1 61 3.1 WSW 15 26 8 14 1017.9 - 0.0
27/03:00pm 11.2 6.9 3.3 58 3.5 W 15 32 8 17 1017.7 1018.3 0.0
27/02:30pm 10.4 6.1 3.1 60 3.2 W 15 28 8 15 1017.5 - 0.0
27/02:00pm 10.5 5.2 2.9 59 3.3 W 20 33 11 18 1017.2 - 0.0
27/01:30pm 10.4 5.2 3.6 63 3.0 W 20 37 11 20 1017.1 - 0.0
27/01:00pm 9.7 4.5 3.8 66 2.6 W 20 32 11 17 1017.1 - 0.0
27/12:30pm 8.8 3.6 3.5 69 2.3 W 20 35 11 19 1017.3 - 0.0
27/12:00pm 8.2 2.9 3.1 70 2.2 W 20 33 11 18 1017.2 1017.7 0.0
27/11:30am 8.0 1.8 2.0 66 2.5 W 24 43 13 23 1017.5 - 0.0
27/11:00am 7.6 2.0 1.5 65 2.5 W 20 32 11 17 1017.9 - 0.0
27/10:30am 6.9 1.9 1.2 67 2.3 W 17 28 9 15 1017.7 - 0.0
27/10:00am 6.5 2.2 1.0 68 2.2 NW 13 22 7 12 1017.5 - 0.0
27/09:30am 5.3 0.9 0.1 69 2.0 W 13 24 7 13 1017.5 - 0.0
27/09:00am 4.3 -0.6 -0.8 69 1.9 WNW 15 22 8 12 1017.0 1017.5 0.8
27/08:30am 3.6 -1.4 -1.3 70 1.8 WNW 15 20 8 11 1016.6 - 0.8
27/08:00am 3.1 -1.5 -1.3 73 1.6 NW 13 19 7 10 1015.8 - 0.8
27/07:30am 3.0 -2.1 -2.0 70 1.8 WNW 15 20 8 11 1015.3 - 0.8
27/07:00am 3.0 -2.4 -1.7 71 1.7 WNW 17 30 9 16 1015.0 - 0.8
27/06:30am 2.7 -3.1 -1.8 72 1.6 W 19 28 10 15 1014.0 - 0.8
27/06:00am 2.6 -1.4 -1.9 72 1.6 NNW 9 15 5 8 1013.7 1014.2 0.8
27/05:30am 2.3 -2.4 -1.6 75 1.4 NW 13 20 7 11 1013.3 - 0.8
27/05:00am 2.4 -1.9 -1.8 74 1.5 NW 11 17 6 9 1012.5 - 0.8
27/04:30am 2.8 -2.3 -2.0 71 1.7 NW 15 24 8 13 1011.8 - 0.8
27/04:00am 3.0 -1.8 -2.4 67 1.9 WNW 13 20 7 11 1011.4 - 0.8
27/03:30am 3.1 -2.4 -1.9 70 1.8 NW 17 24 9 13 1010.9 - 0.8
27/03:00am 3.2 -1.5 -1.5 71 1.7 NW 13 20 7 11 1010.4 1010.9 0.8
27/02:30am 3.7 -1.8 -1.8 67 2.0 NW 17 24 9 13 1010.0 - 0.8
27/02:00am 4.0 -0.4 -2.1 64 2.2 NW 11 20 6 11 1009.5 - 0.8
27/01:30am 4.5 -0.6 -1.8 63 2.3 NW 15 26 8 14 1008.7 - 0.8
27/01:00am 4.9 -1.4 -1.2 64 2.3 W 22 46 12 25 1008.3 - 0.8
27/12:30am 5.0 0.1 -0.8 66 2.2 W 15 32 8 17 1007.7 - 0.8
27/12:00am 4.9 -1.3 0.0 70 1.9 W 22 39 12 21 1007.1 1007.6 0.8
 
Date/Time
EST
Temp
°C
App
Temp
°C
Dew
Point
Rel
Hum
%
Delta-T
°C
Wind Press
QNH
hPa
Press
MSL
hPa
Rain
since 9 am
mm
Dir
 
Spd
km/h
Gust
km/h
Spd
kts
Gust
kts
26/11:30pm 4.8 -2.1 0.4 73 1.7 W 26 41 14 22 1006.7 - 0.8
26/11:00pm 5.0 -0.7 0.7 74 1.7 W 20 35 11 19 1006.4 - 0.8
26/10:30pm 4.9 -0.7 1.1 76 1.5 WNW 20 39 11 21 1006.0 - 0.8
26/10:00pm 5.1 -0.8 1.4 77 1.5 WNW 22 35 12 19 1005.5 - 0.8
26/09:30pm 5.8 -1.0 1.1 72 1.9 W 26 39 14 21 1005.2 - 0.8

Other Formats:

Comma delimited format used in spreadsheet applications
http://www.bom.gov.au/fwo/IDT60801/IDT60801.94972.axf

JavaScript Object Notation format (JSON) in row-major order
http://www.bom.gov.au/fwo/IDT60801/IDT60801.94972.json